createdAt,value
2023-09-24T00:01:41.611Z,17.75
2023-09-24T00:04:10.313Z,17.76
2023-09-24T00:06:38.199Z,17.51
2023-09-24T00:09:06.218Z,17.59
2023-09-24T00:11:34.258Z,17.53
2023-09-24T00:14:02.070Z,17.44
2023-09-24T00:16:30.018Z,17.48
2023-09-24T00:18:59.947Z,17.18
2023-09-24T00:21:27.789Z,17.10
2023-09-24T00:23:55.623Z,17.13
2023-09-24T00:26:23.727Z,17.30
2023-09-24T00:28:51.689Z,17.20
2023-09-24T00:31:19.744Z,17.16
2023-09-24T00:33:47.983Z,17.13
2023-09-24T00:36:17.803Z,16.96
2023-09-24T00:38:45.638Z,17.07
2023-09-24T00:41:15.089Z,17.01
2023-09-24T00:43:44.344Z,17.11
2023-09-24T00:46:15.120Z,16.83
2023-09-24T00:48:45.566Z,16.94
2023-09-24T00:51:18.885Z,17.05
2023-09-24T00:53:47.873Z,17.05
2023-09-24T00:56:16.477Z,17.01
2023-09-24T00:58:47.869Z,17.02
2023-09-24T01:01:16.274Z,17.03
2023-09-24T01:03:44.448Z,17.12
2023-09-24T01:06:12.463Z,17.22
2023-09-24T01:08:43.448Z,17.15
2023-09-24T01:11:12.484Z,17.12
2023-09-24T01:13:41.388Z,17.19
2023-09-24T01:16:10.658Z,16.97
2023-09-24T01:18:40.746Z,16.93
2023-09-24T01:21:13.888Z,17.13
2023-09-24T01:23:47.530Z,17.24
2023-09-24T01:26:16.373Z,17.52
2023-09-24T01:28:44.611Z,17.40
2023-09-24T01:31:13.300Z,17.39
2023-09-24T01:33:41.564Z,17.35
2023-09-24T01:36:10.335Z,17.43
2023-09-24T01:38:41.655Z,17.43
2023-09-24T01:41:12.191Z,17.31
2023-09-24T01:43:43.617Z,17.39
2023-09-24T01:46:14.902Z,17.25
2023-09-24T01:48:44.521Z,17.30
2023-09-24T01:51:12.701Z,17.25
2023-09-24T01:53:41.405Z,17.19
2023-09-24T01:56:11.954Z,17.12
2023-09-24T01:58:40.349Z,17.26
2023-09-24T02:01:09.423Z,17.22
2023-09-24T02:03:37.742Z,17.24
2023-09-24T02:06:08.309Z,17.14
2023-09-24T02:08:36.701Z,17.05
2023-09-24T02:11:04.902Z,17.07
2023-09-24T02:13:34.294Z,17.17
2023-09-24T02:16:03.720Z,17.16
2023-09-24T02:18:33.833Z,17.09
2023-09-24T02:21:02.127Z,17.10
2023-09-24T02:23:30.558Z,17.04
2023-09-24T02:25:58.691Z,17.05
2023-09-24T02:28:26.555Z,16.89
2023-09-24T02:30:56.408Z,16.98
2023-09-24T02:33:24.463Z,16.97
2023-09-24T02:35:52.463Z,16.74
2023-09-24T02:38:20.952Z,16.78
2023-09-24T02:40:48.814Z,16.79
2023-09-24T02:43:16.803Z,16.78
2023-09-24T02:45:44.709Z,16.86
2023-09-24T02:48:14.474Z,16.84
2023-09-24T02:50:42.396Z,16.80
2023-09-24T02:53:10.879Z,16.99
2023-09-24T02:55:39.015Z,17.05
2023-09-24T02:58:07.198Z,17.04
2023-09-24T03:00:37.571Z,17.08
2023-09-24T03:03:07.556Z,16.95
2023-09-24T03:05:37.595Z,17.03
2023-09-24T03:08:06.361Z,17.02
2023-09-24T03:10:35.496Z,17.12
2023-09-24T03:13:05.879Z,17.18
2023-09-24T03:15:34.223Z,17.23
2023-09-24T03:18:02.181Z,17.27
2023-09-24T03:20:30.893Z,17.35
2023-09-24T03:23:04.686Z,17.25
2023-09-24T03:25:33.846Z,17.30
2023-09-24T03:28:02.758Z,17.40
2023-09-24T03:30:31.456Z,17.32
2023-09-24T03:33:00.199Z,17.24
2023-09-24T03:35:29.891Z,17.23
2023-09-24T03:37:58.157Z,17.30
2023-09-24T03:40:28.869Z,17.19
2023-09-24T03:42:56.905Z,17.25
2023-09-24T03:45:26.411Z,17.17
2023-09-24T03:47:55.046Z,17.30
2023-09-24T03:50:22.981Z,17.20
2023-09-24T03:52:54.464Z,17.07
2023-09-24T03:55:22.419Z,17.04
2023-09-24T03:57:51.674Z,17.24
2023-09-24T04:00:22.210Z,17.13
2023-09-24T04:02:52.018Z,17.31
2023-09-24T04:05:24.321Z,17.18
2023-09-24T04:07:54.457Z,17.09
2023-09-24T04:10:23.998Z,17.25
2023-09-24T04:12:53.519Z,17.21
2023-09-24T04:15:23.664Z,17.28
2023-09-24T04:17:52.074Z,17.31
2023-09-24T04:20:22.067Z,17.22
2023-09-24T04:22:50.894Z,17.39
2023-09-24T04:25:22.381Z,17.47
2023-09-24T04:27:50.698Z,17.54
2023-09-24T04:30:22.259Z,17.50
2023-09-24T04:32:53.764Z,17.57
2023-09-24T04:35:22.431Z,17.55
2023-09-24T04:37:51.410Z,17.58
2023-09-24T04:40:19.843Z,17.72
2023-09-24T04:42:48.751Z,17.83
2023-09-24T04:45:18.969Z,17.67
2023-09-24T04:47:50.145Z,17.54
2023-09-24T04:50:18.509Z,17.65
2023-09-24T04:52:49.040Z,17.50
2023-09-24T04:55:17.254Z,17.42
2023-09-24T04:57:45.679Z,17.46
2023-09-24T05:00:16.162Z,17.50
2023-09-24T05:02:44.551Z,17.45
2023-09-24T05:05:15.676Z,17.48
2023-09-24T05:07:43.708Z,17.36
2023-09-24T05:10:11.728Z,17.28
2023-09-24T05:12:39.544Z,17.39
2023-09-24T05:15:09.041Z,17.26
2023-09-24T05:17:37.259Z,17.18
2023-09-24T05:20:06.748Z,17.14
2023-09-24T05:22:35.992Z,17.03
2023-09-24T05:25:04.292Z,17.02
2023-09-24T05:27:33.759Z,16.97
2023-09-24T05:30:02.050Z,17.11
2023-09-24T05:32:29.988Z,17.26
2023-09-24T05:34:57.896Z,17.40
2023-09-24T05:37:25.815Z,17.56
2023-09-24T05:39:55.029Z,17.33
2023-09-24T05:42:22.867Z,17.32
2023-09-24T05:44:50.755Z,17.27
2023-09-24T05:47:18.595Z,17.21
2023-09-24T05:49:46.358Z,17.41
2023-09-24T05:52:14.123Z,17.42
2023-09-24T05:54:42.760Z,17.51
2023-09-24T05:57:12.109Z,17.48
2023-09-24T05:59:40.114Z,17.30
2023-09-24T06:02:08.371Z,17.21
2023-09-24T06:04:36.427Z,17.37
2023-09-24T06:07:04.416Z,17.53
2023-09-24T06:09:32.389Z,17.41
2023-09-24T06:12:00.201Z,17.67
2023-09-24T06:14:29.895Z,17.54
2023-09-24T06:16:57.990Z,17.52
2023-09-24T06:19:25.729Z,17.58
2023-09-24T06:21:53.910Z,17.55
2023-09-24T06:24:22.634Z,17.43
2023-09-24T06:26:50.512Z,17.35
2023-09-24T06:29:18.413Z,17.36
2023-09-24T06:31:48.781Z,17.47
2023-09-24T06:34:16.659Z,17.55
2023-09-24T06:36:44.480Z,17.50
2023-09-24T06:39:15.292Z,17.35
2023-09-24T06:41:43.966Z,17.35
2023-09-24T06:44:12.303Z,17.41
2023-09-24T06:46:40.128Z,17.31
2023-09-24T06:49:09.308Z,17.63
2023-09-24T06:51:37.150Z,17.65
2023-09-24T06:54:05.101Z,17.88
2023-09-24T06:56:32.933Z,18.06
2023-09-24T06:59:00.776Z,18.11
2023-09-24T07:01:29.195Z,17.98
2023-09-24T07:03:57.215Z,18.16
2023-09-24T07:06:28.194Z,18.08
2023-09-24T07:08:56.241Z,18.37
2023-09-24T07:11:26.371Z,18.31
2023-09-24T07:13:54.502Z,18.36
2023-09-24T07:16:25.132Z,18.62
2023-09-24T07:18:54.253Z,18.83
2023-09-24T07:21:33.728Z,18.58
2023-09-24T07:24:06.314Z,18.48
2023-09-24T07:26:34.416Z,18.68
2023-09-24T07:29:02.340Z,18.49
2023-09-24T07:31:31.672Z,18.75
2023-09-24T07:34:02.330Z,19.05
2023-09-24T07:36:36.120Z,19.21
2023-09-24T07:39:11.197Z,19.48
2023-09-24T07:41:39.156Z,19.32
2023-09-24T07:44:07.679Z,19.37
2023-09-24T07:46:35.603Z,19.67
2023-09-24T07:49:06.762Z,19.62
2023-09-24T07:51:35.242Z,19.83
2023-09-24T07:54:03.201Z,19.67
2023-09-24T07:56:32.860Z,19.84
2023-09-24T07:59:01.916Z,20.11
2023-09-24T08:01:30.041Z,20.02
2023-09-24T08:03:58.049Z,20.15
2023-09-24T08:06:29.022Z,20.23
2023-09-24T08:09:09.062Z,20.19
2023-09-24T08:11:46.135Z,20.38
2023-09-24T08:14:13.974Z,20.42
2023-09-24T08:16:42.391Z,20.21
2023-09-24T08:19:10.393Z,20.24
2023-09-24T08:21:38.246Z,20.06
2023-09-24T08:24:06.846Z,20.09
2023-09-24T08:26:35.108Z,20.11
2023-09-24T08:29:07.490Z,20.11
2023-09-24T08:31:36.462Z,20.49
2023-09-24T08:34:04.670Z,20.68
2023-09-24T08:36:32.598Z,20.50
2023-09-24T08:39:05.809Z,20.65
2023-09-24T08:41:34.891Z,20.78
2023-09-24T08:44:07.211Z,20.94
2023-09-24T08:46:36.583Z,21.10
2023-09-24T08:49:05.254Z,21.23
2023-09-24T08:51:35.098Z,21.18
2023-09-24T08:54:03.707Z,21.00
2023-09-24T08:56:31.725Z,21.07
2023-09-24T08:59:00.287Z,21.31
2023-09-24T09:01:29.511Z,21.20
2023-09-24T09:03:57.413Z,21.42
2023-09-24T09:06:32.912Z,21.58
2023-09-24T09:09:01.358Z,21.64
2023-09-24T09:11:39.664Z,21.99
2023-09-24T09:14:07.489Z,21.61
2023-09-24T09:16:56.639Z,21.92
2023-09-24T09:19:24.929Z,22.24
2023-09-24T09:21:53.745Z,22.16
2023-09-24T09:24:23.949Z,21.97
2023-09-24T09:26:55.916Z,22.01
2023-09-24T09:29:24.686Z,22.12
2023-09-24T09:31:55.660Z,22.31
2023-09-24T09:34:24.229Z,22.42
2023-09-24T09:36:52.682Z,22.32
2023-09-24T09:39:20.632Z,22.54
2023-09-24T09:41:51.737Z,22.44
2023-09-24T09:44:26.729Z,22.61
2023-09-24T09:47:01.363Z,22.61
2023-09-24T09:49:33.821Z,22.69
2023-09-24T09:52:03.601Z,22.83
2023-09-24T09:54:36.058Z,22.85
2023-09-24T09:57:06.207Z,23.01
2023-09-24T09:59:36.323Z,22.81
2023-09-24T10:02:06.989Z,22.87
2023-09-24T10:04:37.065Z,23.02
2023-09-24T10:07:06.567Z,23.12
2023-09-24T10:09:37.613Z,23.26
2023-09-24T10:12:08.272Z,23.23
2023-09-24T10:14:38.294Z,23.41
2023-09-24T10:17:41.133Z,23.37
2023-09-24T10:20:10.412Z,23.41
2023-09-24T10:22:41.613Z,23.46
2023-09-24T10:25:34.123Z,23.77
2023-09-24T10:28:08.765Z,23.79
2023-09-24T10:31:05.625Z,23.98
2023-09-24T10:34:00.636Z,23.95
2023-09-24T10:36:30.708Z,24.12
2023-09-24T10:39:11.735Z,23.82
2023-09-24T10:42:17.001Z,23.92
2023-09-24T10:44:45.071Z,23.84
2023-09-24T10:47:26.607Z,24.10
2023-09-24T10:50:03.995Z,24.19
2023-09-24T10:52:47.129Z,24.02
2023-09-24T10:55:16.692Z,23.87
2023-09-24T10:57:51.294Z,24.09
2023-09-24T11:00:20.103Z,24.23
2023-09-24T11:02:54.849Z,24.16
2023-09-24T11:05:22.935Z,24.40
2023-09-24T11:07:50.734Z,24.60
2023-09-24T11:10:19.878Z,24.63
2023-09-24T11:12:52.304Z,24.37
2023-09-24T11:15:21.065Z,24.54
2023-09-24T11:17:51.233Z,24.88
2023-09-24T11:20:22.113Z,24.48
2023-09-24T11:22:58.337Z,24.81
2023-09-24T11:25:26.355Z,25.14
2023-09-24T11:27:56.546Z,25.21
2023-09-24T11:30:28.120Z,25.22
2023-09-24T11:32:56.058Z,25.37
2023-09-24T11:35:26.646Z,25.40
2023-09-24T11:37:57.894Z,25.25
2023-09-24T11:40:26.368Z,25.22
2023-09-24T11:42:57.462Z,25.23
2023-09-24T11:45:49.579Z,25.63
2023-09-24T11:48:21.429Z,25.56
2023-09-24T11:50:51.144Z,25.60
2023-09-24T11:53:24.120Z,25.39
2023-09-24T11:55:54.070Z,25.63
2023-09-24T11:58:27.342Z,25.50
2023-09-24T12:00:56.226Z,25.51
2023-09-24T12:03:24.966Z,25.22
2023-09-24T12:05:53.274Z,25.34
2023-09-24T12:08:22.234Z,25.63
2023-09-24T12:10:52.041Z,25.72
2023-09-24T12:13:20.417Z,25.30
2023-09-24T12:15:49.687Z,25.67
2023-09-24T12:18:17.622Z,25.65
2023-09-24T12:20:46.343Z,25.99
2023-09-24T12:23:14.315Z,26.08
2023-09-24T12:25:44.622Z,26.12
2023-09-24T12:28:15.225Z,25.82
2023-09-24T12:30:44.304Z,26.03
2023-09-24T12:33:15.410Z,26.26
2023-09-24T12:35:43.998Z,26.09
2023-09-24T12:38:12.792Z,26.55
2023-09-24T12:40:40.670Z,26.40
2023-09-24T12:43:08.516Z,26.46
2023-09-24T12:45:36.383Z,26.53
2023-09-24T12:48:04.542Z,26.61
2023-09-24T12:50:35.428Z,26.93
2023-09-24T12:53:03.304Z,26.99
2023-09-24T12:55:31.360Z,26.50
2023-09-24T12:57:59.388Z,26.75
2023-09-24T13:00:27.233Z,27.06
2023-09-24T13:02:55.218Z,27.12
2023-09-24T13:05:24.627Z,27.17
2023-09-24T13:07:53.808Z,26.48
2023-09-24T13:10:21.631Z,26.53
2023-09-24T13:12:49.479Z,27.12
2023-09-24T13:15:17.366Z,27.19
2023-09-24T13:17:45.315Z,27.70
2023-09-24T13:20:14.641Z,27.85
2023-09-24T13:22:42.782Z,27.22
2023-09-24T13:25:14.846Z,27.70
2023-09-24T13:27:43.212Z,27.95
2023-09-24T13:30:11.433Z,27.80
2023-09-24T13:32:40.005Z,27.72
2023-09-24T13:35:09.078Z,27.74
2023-09-24T13:37:38.947Z,27.72
2023-09-24T13:40:22.771Z,27.67
2023-09-24T13:42:56.360Z,27.20
2023-09-24T13:45:25.112Z,27.71
2023-09-24T13:47:52.985Z,28.00
2023-09-24T13:50:20.923Z,27.92
2023-09-24T13:52:48.865Z,27.65
2023-09-24T13:55:16.816Z,27.68
2023-09-24T13:57:44.605Z,27.72
2023-09-24T14:00:14.816Z,27.93
2023-09-24T14:02:44.085Z,27.71
2023-09-24T14:05:12.014Z,27.70
2023-09-24T14:07:39.832Z,27.78
2023-09-24T14:10:25.589Z,28.08
2023-09-24T14:12:53.340Z,27.65
2023-09-24T14:15:22.548Z,27.96
2023-09-24T14:18:02.806Z,27.90
2023-09-24T14:20:38.161Z,27.91
2023-09-24T14:23:06.017Z,27.81
2023-09-24T14:25:39.057Z,27.79
2023-09-24T14:28:07.410Z,27.81
2023-09-24T14:30:38.892Z,27.87
2023-09-24T14:33:07.837Z,27.88
2023-09-24T14:35:36.697Z,27.93
2023-09-24T14:38:05.095Z,27.63
2023-09-24T14:40:36.532Z,27.64
2023-09-24T14:43:04.744Z,27.85
2023-09-24T14:45:32.577Z,27.92
2023-09-24T14:48:02.534Z,28.18
2023-09-24T14:50:30.451Z,28.42
2023-09-24T14:52:58.338Z,27.95
2023-09-24T14:55:26.286Z,28.19
2023-09-24T14:57:55.750Z,27.77
2023-09-24T15:00:25.963Z,27.66
2023-09-24T15:02:57.029Z,27.80
2023-09-24T15:05:26.674Z,27.96
2023-09-24T15:07:54.737Z,27.96
2023-09-24T15:10:23.748Z,27.96
2023-09-24T15:12:53.364Z,27.99
2023-09-24T15:15:21.161Z,28.05
2023-09-24T15:17:49.091Z,27.09
2023-09-24T15:20:17.098Z,26.12
2023-09-24T15:22:47.008Z,27.27
2023-09-24T15:25:14.871Z,27.28
2023-09-24T15:27:42.705Z,27.74
2023-09-24T15:30:11.196Z,27.58
2023-09-24T15:32:39.069Z,27.84
2023-09-24T15:35:07.678Z,27.70
2023-09-24T15:37:35.476Z,26.98
2023-09-24T15:40:05.508Z,26.89
2023-09-24T15:42:33.421Z,26.51
2023-09-24T15:45:01.315Z,26.53
2023-09-24T15:47:29.167Z,26.95
2023-09-24T15:49:58.351Z,26.78
2023-09-24T15:52:26.265Z,26.91
2023-09-24T15:54:54.195Z,26.93
2023-09-24T15:57:24.285Z,27.15
2023-09-24T15:59:52.210Z,27.07
2023-09-24T16:02:20.171Z,27.11
2023-09-24T16:04:48.675Z,27.19
2023-09-24T16:07:16.546Z,27.10
2023-09-24T16:09:44.450Z,26.96
2023-09-24T16:12:12.322Z,26.81
2023-09-24T16:14:41.619Z,26.94
2023-09-24T16:17:09.695Z,27.09
2023-09-24T16:19:37.545Z,26.88
2023-09-24T16:22:05.606Z,26.75
2023-09-24T16:24:33.952Z,26.70
2023-09-24T16:27:01.862Z,26.61
2023-09-24T16:29:29.715Z,26.53
2023-09-24T16:31:58.962Z,26.40
2023-09-24T16:34:29.382Z,26.37
2023-09-24T16:36:57.175Z,26.50
2023-09-24T16:39:25.056Z,26.33
2023-09-24T16:41:52.841Z,26.31
2023-09-24T16:44:20.686Z,26.28
2023-09-24T16:46:49.745Z,26.31
2023-09-24T16:49:18.955Z,26.34
2023-09-24T16:51:48.544Z,26.35
2023-09-24T16:54:16.723Z,26.46
2023-09-24T16:56:44.554Z,25.96
2023-09-24T16:59:12.407Z,26.11
2023-09-24T17:01:40.465Z,26.20
2023-09-24T17:04:08.683Z,25.96
2023-09-24T17:06:37.991Z,25.84
2023-09-24T17:09:05.941Z,25.89
2023-09-24T17:11:33.744Z,25.89
2023-09-24T17:14:03.695Z,25.76
2023-09-24T17:16:31.565Z,25.40
2023-09-24T17:18:59.397Z,25.53
2023-09-24T17:21:29.113Z,25.59
2023-09-24T17:23:58.694Z,25.53
2023-09-24T17:26:26.897Z,25.39
2023-09-24T17:28:54.712Z,25.05
2023-09-24T17:31:23.397Z,24.88
2023-09-24T17:33:51.369Z,24.92
2023-09-24T17:36:20.960Z,24.70
2023-09-24T17:38:49.621Z,24.61
2023-09-24T17:41:19.185Z,24.62
2023-09-24T17:43:47.461Z,24.55
2023-09-24T17:46:18.084Z,24.23
2023-09-24T17:48:47.511Z,24.00
2023-09-24T17:51:16.534Z,23.83
2023-09-24T17:53:44.849Z,23.72
2023-09-24T17:56:13.828Z,23.69
2023-09-24T17:58:43.535Z,23.60
2023-09-24T18:01:13.456Z,23.49
2023-09-24T18:03:43.530Z,23.34
2023-09-24T18:06:11.986Z,23.18
2023-09-24T18:08:40.992Z,23.16
2023-09-24T18:11:09.103Z,23.14
2023-09-24T18:13:38.660Z,23.15
2023-09-24T18:16:08.264Z,23.01
2023-09-24T18:18:37.461Z,22.93
2023-09-24T18:21:06.474Z,22.84
2023-09-24T18:23:35.896Z,22.79
2023-09-24T18:26:04.760Z,22.78
2023-09-24T18:28:32.826Z,22.62
2023-09-24T18:31:01.746Z,22.32
2023-09-24T18:33:32.455Z,22.13
2023-09-24T18:36:01.918Z,22.09
2023-09-24T18:38:30.517Z,22.15
2023-09-24T18:40:58.756Z,22.14
2023-09-24T18:43:27.257Z,22.01
2023-09-24T18:46:01.759Z,22.01
2023-09-24T18:48:32.961Z,21.91
2023-09-24T18:51:01.269Z,21.80
2023-09-24T18:53:30.489Z,21.82
2023-09-24T18:56:02.729Z,21.67
2023-09-24T18:58:32.113Z,21.80
2023-09-24T19:01:00.658Z,21.86
2023-09-24T19:03:29.335Z,21.88
2023-09-24T19:05:58.735Z,21.66
2023-09-24T19:08:27.302Z,21.47
2023-09-24T19:10:55.973Z,21.50
2023-09-24T19:13:30.110Z,21.42
2023-09-24T19:16:06.300Z,21.48
2023-09-24T19:18:34.680Z,21.44
2023-09-24T19:21:05.346Z,21.48
2023-09-24T19:23:33.650Z,21.27
2023-09-24T19:26:12.128Z,21.19
2023-09-24T19:28:40.504Z,21.09
2023-09-24T19:31:09.348Z,20.98
2023-09-24T19:33:38.727Z,21.03
2023-09-24T19:36:09.093Z,20.94
2023-09-24T19:38:37.559Z,20.82
2023-09-24T19:41:07.008Z,20.84
2023-09-24T19:43:34.981Z,20.76
2023-09-24T19:46:03.431Z,20.72
2023-09-24T19:48:32.425Z,20.62
2023-09-24T19:51:00.974Z,20.51
2023-09-24T19:53:30.803Z,20.29
2023-09-24T19:55:59.248Z,20.17
2023-09-24T19:58:29.043Z,20.11
2023-09-24T20:01:01.383Z,20.04
2023-09-24T20:03:29.561Z,19.98
2023-09-24T20:05:58.123Z,19.99
2023-09-24T20:08:30.629Z,19.99
2023-09-24T20:11:00.720Z,20.08
2023-09-24T20:13:30.824Z,20.08
2023-09-24T20:15:59.151Z,19.98
2023-09-24T20:18:27.826Z,19.81
2023-09-24T20:20:56.153Z,19.61
2023-09-24T20:23:24.119Z,19.63
2023-09-24T20:25:54.259Z,19.58
2023-09-24T20:28:33.702Z,19.56
2023-09-24T20:31:12.234Z,19.49
2023-09-24T20:33:49.885Z,19.52
2023-09-24T20:36:26.845Z,19.72
2023-09-24T20:38:54.704Z,19.78
2023-09-24T20:41:22.557Z,19.82
2023-09-24T20:43:52.479Z,19.80
2023-09-24T20:46:23.307Z,19.67
2023-09-24T20:48:51.484Z,19.44
2023-09-24T20:51:19.772Z,19.27
2023-09-24T20:53:47.733Z,19.02
2023-09-24T20:56:16.101Z,18.96
2023-09-24T20:58:46.689Z,19.10
2023-09-24T21:01:16.025Z,19.26
2023-09-24T21:03:45.504Z,19.50
2023-09-24T21:06:13.820Z,19.63
2023-09-24T21:08:41.852Z,19.53
2023-09-24T21:11:09.807Z,19.47
2023-09-24T21:13:37.721Z,19.43
2023-09-24T21:16:08.976Z,19.29
2023-09-24T21:18:38.253Z,19.22
2023-09-24T21:21:06.184Z,19.22
2023-09-24T21:23:34.053Z,19.04
2023-09-24T21:26:03.132Z,18.91
2023-09-24T21:28:31.038Z,18.86
2023-09-24T21:31:04.505Z,18.89
2023-09-24T21:33:32.618Z,18.74
2023-09-24T21:36:02.018Z,18.75
2023-09-24T21:38:29.959Z,18.72
2023-09-24T21:40:58.141Z,18.54
2023-09-24T21:43:31.062Z,18.56
2023-09-24T21:45:59.730Z,18.56
2023-09-24T21:48:27.706Z,18.40
2023-09-24T21:50:56.418Z,18.40
2023-09-24T21:53:25.757Z,18.18
2023-09-24T21:55:55.405Z,18.36
2023-09-24T21:58:23.321Z,18.05
2023-09-24T22:00:51.159Z,18.28
2023-09-24T22:03:19.927Z,18.36
2023-09-24T22:05:48.148Z,18.32
2023-09-24T22:08:16.028Z,18.28
2023-09-24T22:10:45.273Z,18.53
2023-09-24T22:13:13.071Z,18.51
2023-09-24T22:15:41.016Z,18.46
2023-09-24T22:18:08.946Z,18.54
2023-09-24T22:20:36.825Z,18.38
2023-09-24T22:23:05.009Z,18.35
2023-09-24T22:25:32.859Z,18.29
2023-09-24T22:28:02.107Z,18.53
2023-09-24T22:30:31.509Z,18.52
2023-09-24T22:32:59.933Z,18.62
2023-09-24T22:35:27.788Z,18.43
2023-09-24T22:37:55.710Z,18.58
2023-09-24T22:40:23.511Z,18.41
2023-09-24T22:42:51.288Z,18.47
2023-09-24T22:45:20.495Z,18.28
2023-09-24T22:47:48.549Z,18.31
2023-09-24T22:50:16.392Z,18.35
2023-09-24T22:52:44.255Z,18.38
2023-09-24T22:55:12.813Z,18.24
2023-09-24T22:57:41.746Z,18.13
2023-09-24T23:00:14.830Z,18.22
2023-09-24T23:02:44.324Z,18.19
2023-09-24T23:05:13.802Z,18.17
2023-09-24T23:07:42.140Z,18.30
2023-09-24T23:10:11.797Z,18.47
2023-09-24T23:12:39.783Z,18.34
2023-09-24T23:15:08.701Z,18.64
2023-09-24T23:17:36.582Z,18.72
2023-09-24T23:20:09.649Z,18.77
2023-09-24T23:22:37.440Z,18.87
2023-09-24T23:25:06.118Z,19.04
2023-09-24T23:27:33.955Z,19.06
2023-09-24T23:30:01.832Z,19.16
2023-09-24T23:32:30.466Z,19.19
2023-09-24T23:34:58.370Z,19.29
2023-09-24T23:37:28.061Z,19.33
2023-09-24T23:39:56.066Z,19.27
2023-09-24T23:42:25.789Z,19.34
2023-09-24T23:44:53.652Z,19.29
2023-09-24T23:47:22.462Z,19.44
2023-09-24T23:49:50.391Z,19.39
2023-09-24T23:52:18.218Z,19.57
2023-09-24T23:54:47.992Z,19.69
2023-09-24T23:57:15.965Z,19.90
2023-09-24T23:59:44.004Z,19.87
